Time;durP1;ratioP1;P1;durP2;ratioP2;P2;SDS_P1;SDS_P2;PMS_P1;PMS_P2;Temp;Humidity;BMP_temperature;BMP_pressure;BME280_temperature;BME280_humidity;BME280_pressure;Samples;Min_cycle;Max_cycle;Signal;HPM_P1;HPM_P2
2022/01/30 00:01:55;;;;;;;1.63;1.00;;;;;;;;;;5071951;28;20111;-74
2022/01/30 00:04:20;;;;;;;0.77;0.70;;;;;;;;;;5072143;28;20031;-73
2022/01/30 00:06:46;;;;;;;1.53;0.80;;;;;;;;;;5070942;28;20409;-73
2022/01/30 00:09:19;;;;;;;3.83;1.00;;;;;;;;;;5071325;28;20021;-74
2022/01/30 00:11:49;;;;;;;1.30;0.60;;;;;;;;;;5069733;28;20117;-74
2022/01/30 00:14:17;;;;;;;0.67;0.50;;;;;;;;;;5069693;28;20044;-74
2022/01/30 00:16:43;;;;;;;1.33;0.53;;;;;;;;;;5069458;28;20024;-73
2022/01/30 00:19:37;;;;;;;2.63;1.07;;;;;;;;;;5070708;28;20381;-73
2022/01/30 00:22:23;;;;;;;3.47;0.70;;;;;;;;;;5069211;28;20527;-75
2022/01/30 00:24:54;;;;;;;1.40;0.67;;;;;;;;;;5070421;28;20046;-74
2022/01/30 00:27:27;;;;;;;3.77;1.07;;;;;;;;;;5069122;28;20086;-74
2022/01/30 00:29:53;;;;;;;3.57;1.00;;;;;;;;;;5069001;28;20410;-74
2022/01/30 00:32:19;;;;;;;4.53;0.70;;;;;;;;;;5070253;28;20044;-74
2022/01/30 00:34:44;;;;;;;6.20;0.90;;;;;;;;;;5070272;28;20021;-73
2022/01/30 00:37:11;;;;;;;4.53;1.03;;;;;;;;;;5070422;28;20059;-74
2022/01/30 00:39:36;;;;;;;2.73;1.40;;;;;;;;;;5068909;28;20059;-74
2022/01/30 00:42:02;;;;;;;3.70;1.23;;;;;;;;;;5069346;28;20020;-74
2022/01/30 00:44:28;;;;;;;4.80;0.60;;;;;;;;;;5070721;28;20365;-73
2022/01/30 00:46:55;;;;;;;3.17;0.63;;;;;;;;;;5070105;28;20056;-75
2022/01/30 00:49:21;;;;;;;3.03;1.00;;;;;;;;;;5068919;28;20559;-75
2022/01/30 00:51:46;;;;;;;4.50;0.93;;;;;;;;;;5069766;28;20100;-74
2022/01/30 00:54:12;;;;;;;4.43;1.03;;;;;;;;;;5068579;28;20473;-75
2022/01/30 00:56:37;;;;;;;2.77;0.70;;;;;;;;;;5068478;28;20103;-74
2022/01/30 00:59:03;;;;;;;4.33;0.90;;;;;;;;;;5068518;28;20412;-74
2022/01/30 01:01:28;;;;;;;1.43;0.60;;;;;;;;;;5068674;28;20029;-74
2022/01/30 01:03:54;;;;;;;4.63;0.97;;;;;;;;;;5068277;28;20027;-74
2022/01/30 01:06:19;;;;;;;9.70;0.80;;;;;;;;;;5069852;28;20437;-74
2022/01/30 01:08:56;;;;;;;2.73;0.60;;;;;;;;;;5069933;28;20029;-74
2022/01/30 01:24:46;;;;;;;4.40;1.33;;;;;;;;;;5068975;28;20035;-73
2022/01/30 01:27:12;;;;;;;4.43;1.03;;;;;;;;;;5051503;28;20059;-74
2022/01/30 01:29:37;;;;;;;1.13;0.50;;;;;;;;;;5068275;28;20035;-74
2022/01/30 01:32:04;;;;;;;3.20;1.23;;;;;;;;;;5069745;28;20100;-74
2022/01/30 01:34:33;;;;;;;4.87;0.60;;;;;;;;;;5069502;28;20434;-73
2022/01/30 01:37:00;;;;;;;2.93;0.33;;;;;;;;;;5069251;28;20020;-74
2022/01/30 01:39:26;;;;;;;7.20;0.80;;;;;;;;;;5067664;28;20048;-73
2022/01/30 01:41:52;;;;;;;3.00;0.90;;;;;;;;;;5069230;28;20032;-74
2022/01/30 01:44:24;;;;;;;3.87;1.33;;;;;;;;;;5069340;28;20494;-73
2022/01/30 01:46:49;;;;;;;3.55;1.10;;;;;;;;;;5068883;28;20480;-73
2022/01/30 01:49:23;;;;;;;2.10;0.70;;;;;;;;;;5069266;28;20040;-73
2022/01/30 01:52:02;;;;;;;3.33;0.53;;;;;;;;;;5068162;28;20465;-74
2022/01/30 01:54:27;;;;;;;3.53;0.67;;;;;;;;;;5069893;28;20165;-73
2022/01/30 01:56:53;;;;;;;4.23;0.97;;;;;;;;;;5068763;28;20518;-74
2022/01/30 01:59:18;;;;;;;1.53;0.50;;;;;;;;;;5068898;28;20730;-73
2022/01/30 02:01:48;;;;;;;5.40;1.27;;;;;;;;;;5069606;28;20087;-74
2022/01/30 02:04:14;;;;;;;4.90;1.17;;;;;;;;;;5069247;28;20029;-74
2022/01/30 02:06:39;;;;;;;9.10;0.90;;;;;;;;;;5069396;28;20173;-73
2022/01/30 02:09:10;;;;;;;3.03;0.83;;;;;;;;;;5067395;28;20028;-74
2022/01/30 02:11:40;;;;;;;9.37;0.80;;;;;;;;;;5068880;28;20032;-74
2022/01/30 02:24:51;;;;;;;7.03;0.57;;;;;;;;;;5069026;28;20040;-73
2022/01/30 02:27:21;;;;;;;2.10;0.40;;;;;;;;;;5067472;28;20037;-73
2022/01/30 02:29:47;;;;;;;2.43;0.43;;;;;;;;;;5067586;28;20039;-73
2022/01/30 02:32:12;;;;;;;6.10;0.80;;;;;;;;;;5068776;28;20396;-74
2022/01/30 02:34:38;;;;;;;5.20;1.27;;;;;;;;;;5068774;28;20089;-73
2022/01/30 02:37:05;;;;;;;2.07;0.50;;;;;;;;;;5069443;28;20043;-73
2022/01/30 02:39:30;;;;;;;3.43;0.83;;;;;;;;;;5070892;28;20044;-73
2022/01/30 02:41:56;;;;;;;2.93;0.50;;;;;;;;;;5070820;28;20451;-74
2022/01/30 02:44:31;;;;;;;5.80;0.90;;;;;;;;;;5071120;28;20508;-75
2022/01/30 02:47:07;;;;;;;6.00;0.70;;;;;;;;;;5072071;28;20527;-73
2022/01/30 02:50:07;;;;;;;4.50;0.80;;;;;;;;;;5071130;28;20697;-75
2022/01/30 02:52:30;;;;;;;4.33;0.70;;;;;;;;;;5072350;28;20098;-73
2022/01/30 02:54:56;;;;;;;1.03;0.53;;;;;;;;;;5070664;28;20032;-74
2022/01/30 02:57:22;;;;;;;4.57;0.70;;;;;;;;;;5070959;28;20374;-74
2022/01/30 02:59:47;;;;;;;1.03;0.40;;;;;;;;;;5072019;28;20032;-73
2022/01/30 03:02:13;;;;;;;5.97;0.50;;;;;;;;;;5072238;28;20032;-74
2022/01/30 03:04:40;;;;;;;3.93;0.57;;;;;;;;;;5072030;28;20461;-74
2022/01/30 03:07:06;;;;;;;4.73;0.70;;;;;;;;;;5070943;28;20248;-73
2022/01/30 03:09:31;;;;;;;2.00;0.40;;;;;;;;;;5072220;28;20460;-73
2022/01/30 03:11:57;;;;;;;1.80;0.60;;;;;;;;;;5072233;28;20400;-74
2022/01/30 03:14:22;;;;;;;4.10;0.43;;;;;;;;;;5071708;28;20028;-75
2022/01/30 03:16:47;;;;;;;3.50;0.40;;;;;;;;;;5071792;28;20461;-75
2022/01/30 03:19:13;;;;;;;3.67;0.50;;;;;;;;;;5071745;28;20109;-74
2022/01/30 03:21:39;;;;;;;6.13;1.10;;;;;;;;;;5071773;28;20025;-75
2022/01/30 03:24:05;;;;;;;5.47;0.80;;;;;;;;;;5070237;28;20484;-73
2022/01/30 03:26:36;;;;;;;4.20;0.90;;;;;;;;;;5070766;28;20026;-74
2022/01/30 03:29:05;;;;;;;2.10;0.73;;;;;;;;;;5071985;28;20024;-73
2022/01/30 03:31:35;;;;;;;2.60;0.73;;;;;;;;;;5070319;28;20032;-74
2022/01/30 03:34:01;;;;;;;7.07;1.00;;;;;;;;;;5070187;28;20027;-73
2022/01/30 03:36:27;;;;;;;7.43;1.17;;;;;;;;;;5071705;28;20036;-73
2022/01/30 03:38:52;;;;;;;3.53;1.30;;;;;;;;;;5071212;28;20044;-74
2022/01/30 03:41:18;;;;;;;1.83;0.80;;;;;;;;;;5070187;28;20031;-74
2022/01/30 03:43:44;;;;;;;4.70;0.97;;;;;;;;;;5071479;28;20049;-74
2022/01/30 03:46:10;;;;;;;5.53;1.27;;;;;;;;;;5069362;28;20029;-73
2022/01/30 03:48:35;;;;;;;2.10;0.53;;;;;;;;;;5070702;28;20036;-74
2022/01/30 03:51:01;;;;;;;5.50;1.37;;;;;;;;;;5071039;28;20025;-73
2022/01/30 03:53:26;;;;;;;3.83;0.90;;;;;;;;;;5070898;28;20396;-74
2022/01/30 03:55:52;;;;;;;8.83;0.90;;;;;;;;;;5070892;28;20029;-73
2022/01/30 03:58:19;;;;;;;5.80;1.30;;;;;;;;;;5070967;28;20103;-73
2022/01/30 04:00:45;;;;;;;5.33;1.03;;;;;;;;;;5071420;28;20032;-73
2022/01/30 04:03:10;;;;;;;7.40;1.20;;;;;;;;;;5069372;28;20506;-73
2022/01/30 04:05:36;;;;;;;2.70;0.70;;;;;;;;;;5069888;28;20056;-73
2022/01/30 04:08:03;;;;;;;7.13;1.20;;;;;;;;;;5069309;28;20078;-74
2022/01/30 04:10:30;;;;;;;4.13;0.73;;;;;;;;;;5069830;28;20444;-75
2022/01/30 04:12:56;;;;;;;3.60;0.83;;;;;;;;;;5071190;28;20637;-73
2022/01/30 04:15:22;;;;;;;4.13;0.93;;;;;;;;;;5069446;28;20039;-75
2022/01/30 04:17:47;;;;;;;5.67;1.10;;;;;;;;;;5069280;28;20550;-73
2022/01/30 04:20:13;;;;;;;5.10;0.87;;;;;;;;;;5070641;28;20024;-74
2022/01/30 04:22:39;;;;;;;3.27;0.83;;;;;;;;;;5070569;28;20039;-73
2022/01/30 04:25:05;;;;;;;4.20;0.90;;;;;;;;;;5070735;28;20056;-73
2022/01/30 04:27:30;;;;;;;4.20;0.90;;;;;;;;;;5071229;28;20073;-73
2022/01/30 04:29:56;;;;;;;6.90;0.90;;;;;;;;;;5070622;28;20038;-73
2022/01/30 04:32:23;;;;;;;3.70;0.40;;;;;;;;;;5069080;28;20445;-75
2022/01/30 04:34:55;;;;;;;3.57;0.87;;;;;;;;;;5068858;28;20035;-74
2022/01/30 04:40:32;;;;;;;3.97;0.60;;;;;;;;;;5078803;28;20661;-74
2022/01/30 05:07:25;;;;;;;7.80;1.27;;;;;;;;;;5069959;28;20450;-73
2022/01/30 05:09:37;;;;;;;5.20;0.70;;;;;;;;;;5069419;28;20043;-73
2022/01/30 05:12:03;;;;;;;6.90;1.60;;;;;;;;;;5069453;28;20029;-73
2022/01/30 05:14:34;;;;;;;5.50;0.60;;;;;;;;;;5069436;28;20027;-73
2022/01/30 05:17:00;;;;;;;18.37;1.00;;;;;;;;;;5068142;28;20047;-74
2022/01/30 05:19:27;;;;;;;3.17;0.67;;;;;;;;;;5069375;28;20036;-72
2022/01/30 05:21:53;;;;;;;3.83;0.70;;;;;;;;;;5067635;28;20021;-73
2022/01/30 05:24:19;;;;;;;4.80;0.90;;;;;;;;;;5068072;28;20483;-73
2022/01/30 05:26:46;;;;;;;7.60;0.93;;;;;;;;;;5069466;28;20029;-74
2022/01/30 05:29:12;;;;;;;4.47;1.03;;;;;;;;;;5067548;28;20600;-74
2022/01/30 05:31:38;;;;;;;6.13;0.90;;;;;;;;;;5068089;28;20024;-72
2022/01/30 05:34:04;;;;;;;4.60;0.43;;;;;;;;;;5067614;28;20031;-73
2022/01/30 05:36:31;;;;;;;4.17;1.13;;;;;;;;;;5069179;28;20020;-73
2022/01/30 05:38:58;;;;;;;5.03;1.03;;;;;;;;;;5067490;28;20090;-73
2022/01/30 05:41:24;;;;;;;5.03;1.00;;;;;;;;;;5067748;28;20034;-73
2022/01/30 05:43:55;;;;;;;4.87;0.67;;;;;;;;;;5067799;28;20024;-74
2022/01/30 05:46:38;;;;;;;6.60;1.40;;;;;;;;;;5069286;28;20116;-73
2022/01/30 05:49:05;;;;;;;6.80;1.10;;;;;;;;;;5067972;28;20027;-74
2022/01/30 05:51:30;;;;;;;10.80;1.50;;;;;;;;;;5068030;28;20554;-76
2022/01/30 05:53:56;;;;;;;4.00;0.97;;;;;;;;;;5067870;28;20116;-73
2022/01/30 05:56:22;;;;;;;4.20;0.90;;;;;;;;;;5069054;28;20365;-74
2022/01/30 05:58:47;;;;;;;2.20;0.93;;;;;;;;;;5067666;28;20027;-73
2022/01/30 06:01:13;;;;;;;3.93;1.53;;;;;;;;;;5068875;28;20794;-74
2022/01/30 06:03:39;;;;;;;1.87;0.80;;;;;;;;;;5067878;28;20116;-73
2022/01/30 06:06:07;;;;;;;2.00;0.63;;;;;;;;;;5068712;28;20436;-74
2022/01/30 06:11:04;;;;;;;2.92;1.08;;;;;;;;;;5070318;28;20107;-74
2022/01/30 06:13:30;;;;;;;5.87;0.73;;;;;;;;;;5071512;28;20109;-73
2022/01/30 06:15:55;;;;;;;6.60;0.97;;;;;;;;;;5073471;28;20028;-74
2022/01/30 06:18:20;;;;;;;3.33;0.67;;;;;;;;;;5073674;28;20040;-73
2022/01/30 06:20:46;;;;;;;9.23;0.73;;;;;;;;;;5073525;28;20578;-73
2022/01/30 06:23:11;;;;;;;7.40;1.00;;;;;;;;;;5072842;28;20032;-73
2022/01/30 06:25:37;;;;;;;7.90;1.70;;;;;;;;;;5072836;28;20090;-74
2022/01/30 06:28:03;;;;;;;6.67;1.07;;;;;;;;;;5071102;28;20028;-73
2022/01/30 06:30:28;;;;;;;4.37;0.90;;;;;;;;;;5072351;28;20097;-73
2022/01/30 06:32:54;;;;;;;2.03;0.53;;;;;;;;;;5072713;28;20027;-74
2022/01/30 06:35:19;;;;;;;9.70;1.90;;;;;;;;;;5072394;28;20028;-73
2022/01/30 06:37:45;;;;;;;8.13;1.03;;;;;;;;;;5072484;28;20032;-73
2022/01/30 06:40:11;;;;;;;3.93;0.87;;;;;;;;;;5072225;28;20258;-73
2022/01/30 06:42:37;;;;;;;4.43;1.13;;;;;;;;;;5072413;28;20499;-73
2022/01/30 06:45:03;;;;;;;4.93;1.03;;;;;;;;;;5070869;28;20024;-74
2022/01/30 06:47:29;;;;;;;5.83;1.40;;;;;;;;;;5072863;28;20029;-75
2022/01/30 06:49:55;;;;;;;10.07;1.37;;;;;;;;;;5072284;28;20020;-73
2022/01/30 06:52:20;;;;;;;7.20;1.10;;;;;;;;;;5072368;28;20112;-74
2022/01/30 06:54:46;;;;;;;6.23;1.23;;;;;;;;;;5073617;28;20088;-74
2022/01/30 06:57:11;;;;;;;7.57;1.10;;;;;;;;;;5072461;28;20020;-73
2022/01/30 06:59:37;;;;;;;7.10;1.10;;;;;;;;;;5072041;28;20035;-74
2022/01/30 07:02:03;;;;;;;10.73;2.57;;;;;;;;;;5071876;28;20423;-74
2022/01/30 07:04:28;;;;;;;7.17;1.17;;;;;;;;;;5070844;28;20373;-73
2022/01/30 07:06:54;;;;;;;3.20;0.97;;;;;;;;;;5070517;28;20025;-73
2022/01/30 07:09:20;;;;;;;15.93;1.00;;;;;;;;;;5071825;28;20099;-74
2022/01/30 07:11:45;;;;;;;5.60;0.93;;;;;;;;;;5072239;28;20555;-74
2022/01/30 07:14:11;;;;;;;5.17;1.00;;;;;;;;;;5070713;28;20538;-74
2022/01/30 07:16:36;;;;;;;5.07;0.80;;;;;;;;;;5072041;28;20468;-73
2022/01/30 07:19:02;;;;;;;3.67;0.80;;;;;;;;;;5071832;28;20029;-73
2022/01/30 07:21:28;;;;;;;8.17;1.30;;;;;;;;;;5071963;28;20031;-73
2022/01/30 07:23:53;;;;;;;6.07;1.07;;;;;;;;;;5070805;28;20104;-74
2022/01/30 07:26:18;;;;;;;6.37;0.77;;;;;;;;;;5071622;28;20476;-74
2022/01/30 07:28:44;;;;;;;4.07;0.90;;;;;;;;;;5071991;28;20036;-74
2022/01/30 07:31:09;;;;;;;1.87;0.67;;;;;;;;;;5071644;28;20047;-73
2022/01/30 07:33:39;;;;;;;11.43;1.57;;;;;;;;;;5070182;28;20487;-74
2022/01/30 07:36:06;;;;;;;3.77;1.17;;;;;;;;;;5070077;28;20105;-74
2022/01/30 07:38:32;;;;;;;5.87;1.07;;;;;;;;;;5071806;28;20051;-73
2022/01/30 07:40:57;;;;;;;3.27;1.17;;;;;;;;;;5072825;28;20436;-74
2022/01/30 07:43:23;;;;;;;10.70;1.30;;;;;;;;;;5071861;28;20021;-73
2022/01/30 07:45:48;;;;;;;7.30;1.43;;;;;;;;;;5071192;28;20448;-73
2022/01/30 07:48:15;;;;;;;1.13;0.80;;;;;;;;;;5069380;28;20032;-73
2022/01/30 07:50:41;;;;;;;2.17;0.50;;;;;;;;;;5069891;28;20032;-74
2022/01/30 07:53:07;;;;;;;5.17;1.00;;;;;;;;;;5070861;28;20025;-74
2022/01/30 07:55:32;;;;;;;7.47;1.37;;;;;;;;;;5086503;28;20043;-74
2022/01/30 07:57:58;;;;;;;6.97;1.80;;;;;;;;;;5069469;28;20020;-74
2022/01/30 08:00:24;;;;;;;2.27;0.80;;;;;;;;;;5070821;28;20024;-74
2022/01/30 08:02:50;;;;;;;6.10;0.80;;;;;;;;;;5069693;28;20490;-74
2022/01/30 08:05:15;;;;;;;3.27;0.83;;;;;;;;;;5070594;28;20020;-74
2022/01/30 08:07:41;;;;;;;6.57;1.67;;;;;;;;;;5071180;28;20048;-73
2022/01/30 08:10:07;;;;;;;8.53;1.17;;;;;;;;;;5071073;28;20523;-74
2022/01/30 08:12:33;;;;;;;6.43;1.10;;;;;;;;;;5070624;28;20025;-73
2022/01/30 08:14:58;;;;;;;3.53;1.47;;;;;;;;;;5069697;28;20036;-73
2022/01/30 08:17:24;;;;;;;7.83;0.83;;;;;;;;;;5069200;28;20025;-74
2022/01/30 08:19:51;;;;;;;6.63;1.33;;;;;;;;;;5071211;28;20029;-73
2022/01/30 08:22:17;;;;;;;3.93;1.10;;;;;;;;;;5069212;28;20032;-73
2022/01/30 08:24:43;;;;;;;7.60;1.00;;;;;;;;;;5069319;28;20032;-74
2022/01/30 08:27:08;;;;;;;6.00;1.57;;;;;;;;;;5070706;28;20098;-75
2022/01/30 08:29:34;;;;;;;1.57;0.67;;;;;;;;;;5068629;28;20392;-73
2022/01/30 08:32:00;;;;;;;2.33;1.10;;;;;;;;;;5069340;28;20059;-73
2022/01/30 08:34:26;;;;;;;10.53;1.03;;;;;;;;;;5069955;28;20427;-74
2022/01/30 08:36:52;;;;;;;5.57;0.90;;;;;;;;;;5069200;28;20127;-74
2022/01/30 08:39:18;;;;;;;8.00;0.90;;;;;;;;;;5068634;28;20496;-73
2022/01/30 08:41:44;;;;;;;5.37;1.17;;;;;;;;;;5068915;28;20233;-73
2022/01/30 08:44:10;;;;;;;7.30;0.83;;;;;;;;;;5052269;28;20024;-73
2022/01/30 08:46:35;;;;;;;4.43;1.03;;;;;;;;;;5068939;28;20027;-73
2022/01/30 08:49:01;;;;;;;5.60;1.13;;;;;;;;;;5072629;28;20032;-74
2022/01/30 08:51:27;;;;;;;7.20;0.87;;;;;;;;;;5072198;28;20052;-74
2022/01/30 08:53:52;;;;;;;2.13;0.60;;;;;;;;;;5070991;28;20036;-74
2022/01/30 08:56:21;;;;;;;3.33;0.70;;;;;;;;;;5051324;28;20032;-73
2022/01/30 08:58:47;;;;;;;5.50;0.77;;;;;;;;;;5068476;28;20039;-73
2022/01/30 09:01:13;;;;;;;6.87;0.90;;;;;;;;;;5068117;28;20032;-74
2022/01/30 09:03:39;;;;;;;8.00;1.30;;;;;;;;;;5068156;28;20035;-74
2022/01/30 09:06:05;;;;;;;3.17;0.90;;;;;;;;;;5069845;28;20051;-74
2022/01/30 09:08:30;;;;;;;3.77;1.17;;;;;;;;;;5069672;28;20028;-74
2022/01/30 09:10:57;;;;;;;7.50;1.07;;;;;;;;;;5069433;28;20395;-74
2022/01/30 09:13:24;;;;;;;7.63;1.20;;;;;;;;;;5068217;28;20090;-74
2022/01/30 09:15:56;;;;;;;3.80;0.97;;;;;;;;;;5069584;28;20033;-74
2022/01/30 09:18:22;;;;;;;3.80;1.37;;;;;;;;;;5068199;28;20030;-74
2022/01/30 09:20:47;;;;;;;3.27;0.90;;;;;;;;;;5068569;28;20040;-73
2022/01/30 09:23:13;;;;;;;4.33;1.30;;;;;;;;;;5069456;28;20374;-75
2022/01/30 09:25:39;;;;;;;3.87;0.77;;;;;;;;;;5068190;28;20028;-74
2022/01/30 09:28:05;;;;;;;17.63;1.80;;;;;;;;;;5068100;28;20035;-73
2022/01/30 09:30:31;;;;;;;13.97;1.27;;;;;;;;;;5051100;28;20061;-75
2022/01/30 09:32:56;;;;;;;5.47;1.70;;;;;;;;;;5069570;28;20028;-74
2022/01/30 09:35:22;;;;;;;6.67;1.47;;;;;;;;;;5068250;28;20036;-73
2022/01/30 09:37:48;;;;;;;3.20;0.90;;;;;;;;;;5068204;28;20029;-74
2022/01/30 09:40:14;;;;;;;4.60;0.93;;;;;;;;;;5068162;28;20539;-75
2022/01/30 09:42:45;;;;;;;6.70;1.53;;;;;;;;;;5068376;28;20071;-74
2022/01/30 09:45:13;;;;;;;2.33;0.70;;;;;;;;;;5069009;28;20028;-74
2022/01/30 09:47:39;;;;;;;5.50;1.13;;;;;;;;;;5067796;28;20024;-74
2022/01/30 09:50:07;;;;;;;8.93;1.57;;;;;;;;;;5069343;28;20025;-74
2022/01/30 09:52:33;;;;;;;6.73;0.90;;;;;;;;;;5069402;28;20108;-74
2022/01/30 09:54:58;;;;;;;7.47;1.30;;;;;;;;;;5068925;28;20024;-73
2022/01/30 09:57:24;;;;;;;4.30;1.00;;;;;;;;;;5069116;28;20017;-74
2022/01/30 09:59:49;;;;;;;6.80;1.53;;;;;;;;;;5069392;28;20427;-74
2022/01/30 10:02:15;;;;;;;3.97;1.00;;;;;;;;;;5068062;28;20021;-74
2022/01/30 10:04:40;;;;;;;5.70;0.80;;;;;;;;;;5068093;28;20060;-74
2022/01/30 10:07:14;;;;;;;7.33;1.40;;;;;;;;;;5069428;28;20467;-74
2022/01/30 10:09:47;;;;;;;8.13;1.50;;;;;;;;;;5069288;28;20032;-74
2022/01/30 10:12:20;;;;;;;4.83;1.40;;;;;;;;;;5084463;28;20107;-74
2022/01/30 10:14:59;;;;;;;4.57;1.00;;;;;;;;;;5069128;28;20044;-74
2022/01/30 10:17:40;;;;;;;9.70;1.33;;;;;;;;;;5067691;28;20051;-75
2022/01/30 10:20:08;;;;;;;4.90;1.47;;;;;;;;;;5069608;28;20070;-74
2022/01/30 10:22:38;;;;;;;7.53;0.87;;;;;;;;;;5069056;28;20544;-74
2022/01/30 10:25:05;;;;;;;5.67;1.20;;;;;;;;;;5067686;28;20020;-75
2022/01/30 10:27:33;;;;;;;3.63;0.90;;;;;;;;;;5067654;28;20078;-74
2022/01/30 10:30:19;;;;;;;2.30;1.00;;;;;;;;;;5067691;28;20094;-76
2022/01/30 10:32:54;;;;;;;8.90;1.40;;;;;;;;;;5083855;28;20032;-74
2022/01/30 10:35:20;;;;;;;6.13;1.30;;;;;;;;;;5069373;28;20025;-76
2022/01/30 10:37:46;;;;;;;5.93;1.63;;;;;;;;;;5068396;28;20449;-74
2022/01/30 10:40:34;;;;;;;12.67;1.30;;;;;;;;;;5076549;28;20048;-74
2022/01/30 10:42:58;;;;;;;11.37;1.53;;;;;;;;;;5074596;28;20021;-74
2022/01/30 10:45:30;;;;;;;6.47;1.50;;;;;;;;;;5068082;28;20085;-73
2022/01/30 10:48:23;;;;;;;14.00;1.85;;;;;;;;;;5068774;28;20055;-75
2022/01/30 10:50:49;;;;;;;8.50;1.30;;;;;;;;;;5067946;28;20041;-74
2022/01/30 10:53:23;;;;;;;8.33;1.80;;;;;;;;;;5067233;28;20021;-74
2022/01/30 10:55:50;;;;;;;4.93;1.10;;;;;;;;;;5069055;28;20021;-74
2022/01/30 10:58:21;;;;;;;5.17;1.40;;;;;;;;;;5068825;28;20020;-74
2022/01/30 11:00:50;;;;;;;11.98;1.65;;;;;;;;;;5072635;28;20021;-74
2022/01/30 11:03:50;;;;;;;3.77;1.40;;;;;;;;;;5072431;28;20024;-74
2022/01/30 11:06:17;;;;;;;7.37;1.93;;;;;;;;;;5071823;28;20107;-75
2022/01/30 11:08:49;;;;;;;8.97;2.23;;;;;;;;;;5072088;28;20124;-74
2022/01/30 11:19:15;;;;;;;7.47;1.33;;;;;;;;;;5072253;28;20043;-74
2022/01/30 11:21:42;;;;;;;9.00;1.90;;;;;;;;;;5070719;28;20043;-74
2022/01/30 11:24:14;;;;;;;10.13;1.77;;;;;;;;;;5070448;28;20106;-74
2022/01/30 11:26:40;;;;;;;7.27;1.97;;;;;;;;;;5070146;28;20037;-74
2022/01/30 11:29:14;;;;;;;8.70;1.40;;;;;;;;;;5070412;28;20503;-75
2022/01/30 11:31:40;;;;;;;10.83;1.77;;;;;;;;;;5072993;28;20062;-74
2022/01/30 11:34:06;;;;;;;12.20;2.00;;;;;;;;;;5070893;28;20029;-74
2022/01/30 11:36:33;;;;;;;7.47;3.30;;;;;;;;;;5071463;28;20337;-74
2022/01/30 11:39:01;;;;;;;6.17;1.70;;;;;;;;;;5071579;28;20048;-74
2022/01/30 11:41:30;;;;;;;6.87;1.70;;;;;;;;;;5070228;28;20071;-74
2022/01/30 11:44:17;;;;;;;9.37;1.90;;;;;;;;;;5054002;28;20052;-75
2022/01/30 11:46:44;;;;;;;7.80;1.47;;;;;;;;;;5069749;28;20047;-73
2022/01/30 11:49:11;;;;;;;12.20;2.03;;;;;;;;;;5070150;28;20517;-74
2022/01/30 11:51:51;;;;;;;12.97;1.90;;;;;;;;;;5069419;28;20371;-74
2022/01/30 11:54:45;;;;;;;8.10;1.63;;;;;;;;;;5070002;28;20448;-75
2022/01/30 11:57:26;;;;;;;10.30;1.60;;;;;;;;;;5071456;28;20407;-73
2022/01/30 11:59:53;;;;;;;9.87;1.50;;;;;;;;;;5071457;28;20056;-73
2022/01/30 12:02:31;;;;;;;13.17;2.20;;;;;;;;;;5070886;28;20086;-74
2022/01/30 12:05:10;;;;;;;15.77;2.57;;;;;;;;;;5070291;28;20069;-74
2022/01/30 12:07:46;;;;;;;11.00;2.50;;;;;;;;;;5070304;28;20120;-73
2022/01/30 12:10:26;;;;;;;6.17;1.97;;;;;;;;;;5069937;28;20028;-74
2022/01/30 12:13:03;;;;;;;15.30;1.80;;;;;;;;;;5072159;28;20059;-74
2022/01/30 12:15:46;;;;;;;10.77;2.00;;;;;;;;;;5070151;28;20085;-74
2022/01/30 12:18:35;;;;;;;15.90;2.20;;;;;;;;;;5070620;28;20024;-73
2022/01/30 12:21:08;;;;;;;16.93;2.67;;;;;;;;;;5063622;28;20040;-74
2022/01/30 12:23:42;;;;;;;5.90;1.43;;;;;;;;;;5069431;28;20029;-73
2022/01/30 12:26:09;;;;;;;11.33;2.00;;;;;;;;;;5070772;28;20047;-74
2022/01/30 12:28:48;;;;;;;15.23;2.03;;;;;;;;;;5070266;28;20025;-74
2022/01/30 12:31:34;;;;;;;13.20;2.03;;;;;;;;;;5070242;28;20032;-73
2022/01/30 12:34:15;;;;;;;8.03;1.80;;;;;;;;;;5069085;28;20025;-73
2022/01/30 12:36:52;;;;;;;10.40;2.27;;;;;;;;;;5069241;28;20021;-73
2022/01/30 12:39:24;;;;;;;12.90;1.77;;;;;;;;;;5068672;28;20080;-74
2022/01/30 12:41:51;;;;;;;10.68;1.88;;;;;;;;;;5070113;28;20336;-73
2022/01/30 12:44:20;;;;;;;11.07;1.70;;;;;;;;;;5068760;28;20036;-74
2022/01/30 12:46:51;;;;;;;12.83;2.13;;;;;;;;;;5068764;28;20024;-74
2022/01/30 12:49:24;;;;;;;12.73;2.13;;;;;;;;;;5070128;28;20071;-72
2022/01/30 12:51:56;;;;;;;8.73;2.00;;;;;;;;;;5069111;28;20032;-75
2022/01/30 12:54:23;;;;;;;;;;;;;;;;;;5068844;28;20024;-74
2022/01/30 12:56:52;;;;;;;8.10;1.83;;;;;;;;;;5069852;28;19918;-74
2022/01/30 12:59:19;;;;;;;8.07;2.10;;;;;;;;;;5070278;28;20071;-74
2022/01/30 13:01:47;;;;;;;8.43;2.70;;;;;;;;;;5069784;28;20021;-74
2022/01/30 13:04:18;;;;;;;9.30;2.33;;;;;;;;;;5068336;28;20028;-73
2022/01/30 13:06:44;;;;;;;7.82;1.75;;;;;;;;;;5069997;28;20028;-74
2022/01/30 13:09:11;;;;;;;13.17;2.03;;;;;;;;;;5068512;28;20393;-74
2022/01/30 13:11:37;;;;;;;11.80;2.27;;;;;;;;;;5071719;28;20035;-75
2022/01/30 13:14:07;;;;;;;10.00;2.00;;;;;;;;;;5070980;28;20447;-74
2022/01/30 13:16:37;;;;;;;10.70;2.03;;;;;;;;;;5070497;28;20127;-74
2022/01/30 13:19:06;;;;;;;19.47;2.70;;;;;;;;;;5068494;28;20032;-75
2022/01/30 13:21:33;;;;;;;11.13;2.00;;;;;;;;;;5068621;28;20025;-74
2022/01/30 13:24:01;;;;;;;12.70;1.97;;;;;;;;;;5067987;28;20048;-74
2022/01/30 13:26:38;;;;;;;19.23;2.87;;;;;;;;;;5068153;28;20090;-74
2022/01/30 13:29:10;;;;;;;7.60;1.70;;;;;;;;;;5068232;28;20024;-74
2022/01/30 13:31:37;;;;;;;8.25;2.10;;;;;;;;;;5069369;28;20561;-74
2022/01/30 13:34:17;;;;;;;13.10;3.47;;;;;;;;;;5068015;28;20074;-74
2022/01/30 13:36:52;;;;;;;10.10;2.87;;;;;;;;;;5069512;28;20025;-72
2022/01/30 13:39:24;;;;;;;14.10;3.13;;;;;;;;;;5069583;28;20140;-73
2022/01/30 13:42:01;;;;;;;;;;;;;;;;;;5070931;28;20025;-73
2022/01/30 13:44:52;;;;;;;15.43;2.27;;;;;;;;;;5067927;28;19908;-74
2022/01/30 13:47:22;;;;;;;9.80;2.83;;;;;;;;;;5069153;28;20112;-74
2022/01/30 13:49:50;;;;;;;11.17;2.70;;;;;;;;;;5069214;28;20120;-74
2022/01/30 13:52:18;;;;;;;12.20;2.17;;;;;;;;;;5067801;28;20024;-73
2022/01/30 13:54:57;;;;;;;12.20;2.37;;;;;;;;;;5068952;28;20066;-74
2022/01/30 13:57:32;;;;;;;15.87;2.63;;;;;;;;;;5068208;28;20021;-74
2022/01/30 14:00:18;;;;;;;11.10;2.10;;;;;;;;;;5069358;28;20059;-73
2022/01/30 14:03:04;;;;;;;12.33;1.83;;;;;;;;;;5067777;28;20028;-73
2022/01/30 14:05:50;;;;;;;12.53;2.90;;;;;;;;;;5070053;28;20416;-74
2022/01/30 14:08:20;;;;;;;9.17;2.00;;;;;;;;;;5069685;28;20071;-75
2022/01/30 14:10:48;;;;;;;13.23;2.77;;;;;;;;;;5067533;28;20031;-74
2022/01/30 14:13:18;;;;;;;14.93;3.07;;;;;;;;;;5068905;28;20549;-74
2022/01/30 14:15:58;;;;;;;5.77;1.57;;;;;;;;;;5067402;28;20423;-74
2022/01/30 14:18:26;;;;;;;9.33;2.00;;;;;;;;;;5068910;28;20020;-74
2022/01/30 14:20:52;;;;;;;15.93;2.40;;;;;;;;;;5067966;28;20037;-74
2022/01/30 14:23:21;;;;;;;10.67;2.03;;;;;;;;;;5067774;28;20029;-74
2022/01/30 14:25:49;;;;;;;18.67;2.73;;;;;;;;;;5068047;28;20036;-74
2022/01/30 14:28:31;;;;;;;12.13;2.17;;;;;;;;;;5069694;28;20020;-74
2022/01/30 14:31:15;;;;;;;14.52;3.08;;;;;;;;;;5069192;28;20453;-74
2022/01/30 14:33:40;;;;;;;11.93;2.43;;;;;;;;;;5072290;28;20036;-74
2022/01/30 14:36:06;;;;;;;11.87;3.13;;;;;;;;;;5071258;28;20039;-74
2022/01/30 14:38:32;;;;;;;16.53;2.73;;;;;;;;;;5072482;28;20049;-74
2022/01/30 14:40:58;;;;;;;19.10;3.00;;;;;;;;;;5070925;28;20564;-73
2022/01/30 14:43:24;;;;;;;13.20;2.60;;;;;;;;;;5072704;28;20078;-75
2022/01/30 14:45:50;;;;;;;13.50;2.43;;;;;;;;;;5071724;28;20028;-75
2022/01/30 14:48:17;;;;;;;8.03;1.73;;;;;;;;;;5072736;28;20060;-75
2022/01/30 14:50:43;;;;;;;13.87;2.83;;;;;;;;;;5072771;28;20409;-76
2022/01/30 14:53:09;;;;;;;7.43;2.33;;;;;;;;;;5072310;28;20070;-74
2022/01/30 14:55:35;;;;;;;10.27;2.43;;;;;;;;;;5072879;28;20110;-74
2022/01/30 14:58:01;;;;;;;10.83;2.20;;;;;;;;;;5072823;28;20406;-73
2022/01/30 15:00:29;;;;;;;15.60;2.63;;;;;;;;;;5070708;28;20032;-73
2022/01/30 15:02:56;;;;;;;15.57;2.20;;;;;;;;;;5072282;28;20054;-76
2022/01/30 15:05:22;;;;;;;11.57;2.20;;;;;;;;;;5072218;28;20443;-76
2022/01/30 15:07:48;;;;;;;12.93;2.00;;;;;;;;;;5072384;28;20058;-75
2022/01/30 15:10:15;;;;;;;12.93;2.70;;;;;;;;;;5070850;28;20369;-78
2022/01/30 15:12:41;;;;;;;7.43;1.77;;;;;;;;;;5072390;28;20082;-76
2022/01/30 15:15:10;;;;;;;8.93;1.90;;;;;;;;;;5070970;28;20035;-76
2022/01/30 15:17:38;;;;;;;11.27;2.03;;;;;;;;;;5071907;28;20055;-75
2022/01/30 15:20:06;;;;;;;12.83;2.37;;;;;;;;;;5070675;28;20351;-78
2022/01/30 15:22:33;;;;;;;10.40;2.00;;;;;;;;;;5071578;28;20032;-76
2022/01/30 15:24:59;;;;;;;18.23;2.80;;;;;;;;;;5071781;28;20038;-76
2022/01/30 15:27:25;;;;;;;7.83;2.00;;;;;;;;;;5071745;28;20396;-76
2022/01/30 15:29:52;;;;;;;12.33;2.67;;;;;;;;;;5070381;28;20519;-75
2022/01/30 15:32:19;;;;;;;19.03;2.60;;;;;;;;;;5071610;28;20039;-76
2022/01/30 15:34:45;;;;;;;14.90;2.40;;;;;;;;;;5071369;28;20024;-78
2022/01/30 15:37:10;;;;;;;10.27;2.57;;;;;;;;;;5070308;28;20138;-76
2022/01/30 15:39:36;;;;;;;16.80;2.47;;;;;;;;;;5071407;28;20488;-75
2022/01/30 15:42:02;;;;;;;9.20;2.47;;;;;;;;;;5071519;28;20037;-78
2022/01/30 15:44:47;;;;;;;16.20;2.43;;;;;;;;;;5070723;28;20039;-76
2022/01/30 15:49:56;;;;;;;16.47;2.77;;;;;;;;;;5072203;28;20130;-76
2022/01/30 15:52:21;;;;;;;11.47;2.77;;;;;;;;;;5071238;28;20032;-78
2022/01/30 15:54:47;;;;;;;11.37;2.43;;;;;;;;;;5071342;28;20060;-76